Time;durP1;ratioP1;P1;durP2;ratioP2;P2;SDS_P1;SDS_P2;PMS_P1;PMS_P2;Temp;Humidity;BMP_temperature;BMP_pressure;BME280_temperature;BME280_humidity;BME280_pressure;Samples;Min_cycle;Max_cycle;Signal;HPM_P1;HPM_P2
2022/05/11 00:01:26;;;;;;;34.38;22.80;;;;;;;10.54;100.00;101145.59;4825485;29;20040;-77
2022/05/11 00:03:53;;;;;;;33.20;23.27;;;;;;;10.69;100.00;101149.47;4853379;29;20553;-77
2022/05/11 00:06:19;;;;;;;36.40;23.33;;;;;;;10.77;100.00;101146.16;4857089;29;20053;-77
2022/05/11 00:08:45;;;;;;;37.85;23.95;;;;;;;10.74;100.00;101145.59;4855125;29;20045;-78
2022/05/11 00:11:10;;;;;;;33.05;22.23;;;;;;;10.63;100.00;101126.41;4855472;29;20046;-79
2022/05/11 00:13:36;;;;;;;32.92;21.50;;;;;;;10.64;100.00;101132.47;4848013;29;20033;-78
2022/05/11 00:16:02;;;;;;;33.70;21.40;;;;;;;10.64;100.00;101127.25;4856796;29;20227;-78
2022/05/11 00:18:27;;;;;;;31.77;20.92;;;;;;;10.60;100.00;101126.69;4851211;29;20166;-77
2022/05/11 00:20:53;;;;;;;32.33;20.48;;;;;;;10.61;100.00;101132.78;4857354;29;20041;-80
2022/05/11 00:23:19;;;;;;;33.92;22.67;;;;;;;10.52;100.00;101129.16;4854718;29;20037;-76
2022/05/11 00:25:45;;;;;;;33.20;21.60;;;;;;;10.52;100.00;101124.75;4862826;29;20044;-78
2022/05/11 00:28:10;;;;;;;32.40;21.58;;;;;;;10.54;100.00;101129.84;4852624;29;20072;-78
2022/05/11 00:30:36;;;;;;;27.95;19.98;;;;;;;10.49;100.00;101117.16;4849594;29;20029;-78
2022/05/11 00:33:02;;;;;;;37.88;22.27;;;;;;;10.44;100.00;101116.75;4855761;29;20041;-77
2022/05/11 00:35:30;;;;;;;27.83;19.80;;;;;;;10.45;100.00;101128.91;4863471;29;20104;-79
2022/05/11 00:37:56;;;;;;;25.48;19.13;;;;;;;10.40;100.00;101131.09;4859588;29;20107;-78
2022/05/11 00:40:23;;;;;;;31.60;21.52;;;;;;;10.36;100.00;101137.59;4858751;29;20062;-79
2022/05/11 00:42:49;;;;;;;32.00;20.60;;;;;;;10.30;100.00;101128.47;4844680;29;20034;-78
2022/05/11 00:45:15;;;;;;;29.67;19.40;;;;;;;10.40;100.00;101140.75;4856579;29;20072;-79
2022/05/11 00:47:46;;;;;;;32.83;21.35;;;;;;;10.49;100.00;101137.31;4841666;29;20693;-79
2022/05/11 00:50:19;;;;;;;30.55;21.08;;;;;;;10.50;100.00;101134.53;4855581;29;20049;-78
2022/05/11 00:52:56;;;;;;;31.92;21.88;;;;;;;10.62;100.00;101122.13;4859821;29;20052;-78
2022/05/11 00:55:33;;;;;;;32.75;22.50;;;;;;;10.80;100.00;101126.69;4843282;29;20060;-77
2022/05/11 00:58:14;;;;;;;33.03;23.65;;;;;;;10.74;100.00;101116.75;4860414;29;20045;-79
2022/05/11 01:00:43;;;;;;;31.13;21.67;;;;;;;10.67;100.00;101111.22;4858974;29;20042;-80
2022/05/11 01:03:23;;;;;;;32.00;22.45;;;;;;;10.60;100.00;101104.88;4851538;29;20078;-77
2022/05/11 01:05:48;;;;;;;35.40;23.45;;;;;;;10.59;100.00;101098.00;4852823;29;20044;-78
2022/05/11 01:08:16;;;;;;;33.58;23.70;;;;;;;10.75;100.00;101113.16;4838354;29;20105;-80
2022/05/11 01:10:44;;;;;;;36.67;23.60;;;;;;;10.70;100.00;101103.09;4854726;29;20041;-79
2022/05/11 01:13:13;;;;;;;34.03;22.92;;;;;;;10.66;100.00;101106.94;4842353;29;20120;-78
2022/05/11 01:15:42;;;;;;;31.30;22.45;;;;;;;10.61;100.00;101101.31;4854608;29;20068;-78
2022/05/11 01:18:09;;;;;;;32.53;21.95;;;;;;;10.56;100.00;101111.38;4879720;29;20037;-78
2022/05/11 01:20:37;;;;;;;33.58;21.83;;;;;;;10.47;100.00;101111.22;4860721;29;20043;-78
2022/05/11 01:23:12;;;;;;;32.90;20.45;;;;;;;10.42;100.00;101109.97;4843395;29;20659;-78
2022/05/11 01:25:38;;;;;;;27.55;20.13;;;;;;;10.39;100.00;101113.69;4849902;29;20061;-78
2022/05/11 01:28:11;;;;;;;29.05;19.65;;;;;;;10.40;100.00;101107.50;4857753;29;20064;-79
2022/05/11 01:30:48;;;;;;;30.35;20.33;;;;;;;10.36;100.00;101103.50;4860135;29;20041;-78
2022/05/11 01:33:19;;;;;;;27.65;19.90;;;;;;;10.40;100.00;101088.31;4847224;29;20038;-78
2022/05/11 01:35:47;;;;;;;26.30;19.38;;;;;;;10.43;100.00;101086.22;4864134;29;20097;-78
2022/05/11 01:38:22;;;;;;;33.92;21.73;;;;;;;10.47;100.00;101086.78;4871497;29;20045;-79
2022/05/11 01:40:47;;;;;;;27.52;19.73;;;;;;;10.46;100.00;101090.38;4865902;29;20496;-80
2022/05/11 01:43:20;;;;;;;28.77;19.77;;;;;;;10.46;100.00;101072.84;4848419;29;20084;-78
2022/05/11 01:45:46;;;;;;;;;;;;;;;10.56;100.00;101066.78;4862574;29;20093;-78
2022/05/11 01:48:11;;;;;;;34.55;21.80;;;;;;;10.63;100.00;101073.94;4857306;29;19924;-77
2022/05/11 01:50:37;;;;;;;29.95;20.35;;;;;;;10.66;100.00;101076.31;4857935;29;20057;-80
2022/05/11 01:53:04;;;;;;;28.17;19.65;;;;;;;10.63;100.00;101070.50;4877104;29;20040;-79
2022/05/11 01:55:30;;;;;;;29.67;20.77;;;;;;;10.67;100.00;101066.63;4873593;29;20507;-79
2022/05/11 01:57:57;;;;;;;28.75;21.02;;;;;;;10.79;100.00;101065.50;4848461;29;20067;-78
2022/05/11 02:00:22;;;;;;;30.52;20.40;;;;;;;10.79;100.00;101052.38;4875083;29;20412;-78
2022/05/11 02:02:48;;;;;;;33.28;20.38;;;;;;;10.80;100.00;101055.84;4888964;29;20033;-77
2022/05/11 02:08:02;;;;;;;28.80;19.10;;;;;;;10.78;100.00;101058.63;4869020;29;20076;-78
2022/05/11 02:10:28;;;;;;;28.70;18.55;;;;;;;10.64;100.00;101059.03;4878311;29;20252;-78
2022/05/11 02:12:57;;;;;;;27.52;18.08;;;;;;;10.58;100.00;101065.66;4886992;29;20033;-79
2022/05/11 02:15:23;;;;;;;29.15;18.35;;;;;;;10.63;100.00;101055.59;4867539;29;20030;-81
2022/05/11 02:17:48;;;;;;;30.17;19.15;;;;;;;10.69;100.00;101054.19;4863039;29;20030;-79
2022/05/11 02:20:16;;;;;;;26.75;18.55;;;;;;;10.79;100.00;101072.56;4850802;29;20466;-79
2022/05/11 02:22:42;;;;;;;25.70;18.02;;;;;;;10.79;100.00;101067.31;4847817;29;20468;-77
2022/05/11 02:25:09;;;;;;;29.10;19.98;;;;;;;10.77;100.00;101061.38;4847602;29;20049;-78
2022/05/11 02:27:35;;;;;;;26.27;18.80;;;;;;;10.81;100.00;101055.72;4864138;29;20037;-79
2022/05/11 02:30:01;;;;;;;26.85;18.80;;;;;;;10.81;100.00;101045.22;4849868;29;20113;-78
2022/05/11 02:32:27;;;;;;;26.60;18.48;;;;;;;10.76;100.00;101030.88;4880040;29;20045;-79
2022/05/11 02:35:12;;;;;;;25.55;17.92;;;;;;;10.70;100.00;101038.31;4867380;29;20037;-78
2022/05/11 02:37:59;;;;;;;27.13;18.83;;;;;;;10.66;100.00;101031.72;4872054;29;20033;-79
2022/05/11 02:40:28;;;;;;;25.35;17.20;;;;;;;10.58;100.00;101025.50;4861399;29;20067;-78
2022/05/11 02:42:54;;;;;;;26.48;17.73;;;;;;;10.56;100.00;101022.19;4838199;29;20409;-79
2022/05/11 02:45:21;;;;;;;25.55;16.88;;;;;;;10.58;100.00;101022.88;4873057;29;20044;-78
2022/05/11 02:47:48;;;;;;;23.92;16.45;;;;;;;10.55;100.00;101023.13;4847246;29;20116;-78
2022/05/11 02:50:17;;;;;;;23.17;17.05;;;;;;;10.55;100.00;101029.25;4848027;29;20504;-78
2022/05/11 02:52:42;;;;;;;22.33;16.95;;;;;;;10.44;100.00;101017.09;4879699;29;20033;-78
2022/05/11 02:55:09;;;;;;;25.60;17.05;;;;;;;10.49;100.00;101022.75;4863584;29;20035;-77
2022/05/11 02:57:35;;;;;;;23.88;16.60;;;;;;;10.48;100.00;101023.72;4862628;29;20052;-78
2022/05/11 03:00:01;;;;;;;25.05;17.05;;;;;;;10.49;100.00;101016.66;4863773;29;20540;-77
2022/05/11 03:02:26;;;;;;;20.15;15.75;;;;;;;10.53;100.00;101018.06;4852793;29;20033;-78
2022/05/11 03:04:52;;;;;;;20.50;15.35;;;;;;;10.42;100.00;101010.34;4866282;29;20424;-79
2022/05/11 03:07:18;;;;;;;21.75;15.90;;;;;;;10.46;100.00;101019.56;4878890;29;20037;-79
2022/05/11 03:09:44;;;;;;;19.75;14.85;;;;;;;10.42;100.00;101018.19;4879511;29;20045;-78
2022/05/11 03:12:11;;;;;;;19.42;15.68;;;;;;;10.41;100.00;101019.97;4883628;29;20041;-79
2022/05/11 03:14:38;;;;;;;20.80;15.23;;;;;;;10.39;100.00;101024.53;4869553;29;20124;-80
2022/05/11 03:17:04;;;;;;;20.75;14.90;;;;;;;10.29;100.00;101011.41;4869628;29;20120;-76
2022/05/11 03:19:30;;;;;;;24.00;15.65;;;;;;;10.34;100.00;101018.91;4860042;29;20044;-79
2022/05/11 03:21:57;;;;;;;19.83;15.82;;;;;;;10.41;100.00;101029.66;4860784;29;20026;-77
2022/05/11 03:24:23;;;;;;;24.83;15.32;;;;;;;10.38;100.00;101022.03;4863845;29;20049;-78
2022/05/11 03:26:49;;;;;;;22.52;14.70;;;;;;;10.33;100.00;101023.28;4866509;29;20040;-78
2022/05/11 03:29:15;;;;;;;21.73;16.42;;;;;;;10.30;100.00;101009.59;4866514;29;20523;-78
2022/05/11 03:31:40;;;;;;;24.33;15.40;;;;;;;10.29;100.00;101016.63;4875163;29;20057;-78
2022/05/11 03:36:52;;;;;;;23.85;15.70;;;;;;;10.37;100.00;101010.72;4875841;29;20096;-76
2022/05/11 03:39:18;;;;;;;23.60;15.60;;;;;;;10.45;100.00;101008.25;4857317;29;20131;-77
2022/05/11 03:41:47;;;;;;;19.75;15.63;;;;;;;10.39;100.00;101010.59;4856181;29;20112;-78
2022/05/11 03:44:12;;;;;;;20.52;15.43;;;;;;;10.41;100.00;101013.91;4865690;29;20044;-78
2022/05/11 03:46:38;;;;;;;19.75;15.25;;;;;;;10.40;100.00;101001.78;4865209;29;20029;-78
2022/05/11 03:49:04;;;;;;;24.10;16.52;;;;;;;10.46;100.00;100991.53;4870074;29;20097;-77
2022/05/11 03:51:30;;;;;;;23.40;17.25;;;;;;;10.41;100.00;101001.63;4864145;29;20603;-77
2022/05/11 03:53:56;;;;;;;24.58;15.93;;;;;;;10.41;100.00;100988.50;4881225;29;20045;-79
2022/05/11 03:56:21;;;;;;;20.70;15.98;;;;;;;10.42;100.00;100992.81;4842130;29;20085;-77
2022/05/11 03:58:47;;;;;;;19.85;15.80;;;;;;;10.42;100.00;100989.34;4864709;29;20051;-78
2022/05/11 04:01:14;;;;;;;21.10;14.45;;;;;;;10.40;100.00;100986.06;4853423;29;20037;-79
2022/05/11 04:03:40;;;;;;;21.40;14.98;;;;;;;10.43;100.00;100976.09;4862052;29;20048;-81
2022/05/11 04:06:06;;;;;;;21.80;16.17;;;;;;;10.53;100.00;100978.72;4886894;29;20567;-79
2022/05/11 04:08:32;;;;;;;23.65;16.38;;;;;;;10.52;100.00;100970.00;4860430;29;20035;-77
2022/05/11 04:10:57;;;;;;;27.77;18.38;;;;;;;10.55;100.00;100949.69;4874253;29;20025;-77
2022/05/11 04:13:23;;;;;;;25.73;19.27;;;;;;;10.70;100.00;100967.50;4854027;29;20412;-78
2022/05/11 04:15:50;;;;;;;23.73;17.42;;;;;;;10.74;100.00;100982.94;4876294;29;20065;-79
2022/05/11 04:18:17;;;;;;;22.48;16.80;;;;;;;10.75;100.00;100976.72;4868036;29;20060;-79
2022/05/11 04:20:43;;;;;;;28.92;17.75;;;;;;;10.78;100.00;100973.84;4849763;29;20053;-77
2022/05/11 04:23:09;;;;;;;23.67;16.90;;;;;;;10.82;100.00;100965.53;4870316;29;20114;-78
2022/05/11 04:25:35;;;;;;;25.17;18.45;;;;;;;10.85;100.00;100967.88;4860862;29;20041;-80
2022/05/11 04:28:02;;;;;;;23.48;17.63;;;;;;;10.96;100.00;100968.66;4844196;29;20037;-77
2022/05/11 04:30:31;;;;;;;25.83;19.27;;;;;;;11.04;100.00;100966.97;4875571;29;20034;-77
2022/05/11 04:32:58;;;;;;;27.50;18.83;;;;;;;11.09;100.00;100975.25;4867241;29;20044;-77
2022/05/11 04:35:30;;;;;;;26.20;18.50;;;;;;;11.13;100.00;100967.88;4871491;29;20564;-78
2022/05/11 04:37:59;;;;;;;25.47;17.83;;;;;;;11.17;100.00;100964.03;4851792;29;20123;-79
2022/05/11 04:40:26;;;;;;;24.90;17.40;;;;;;;11.19;100.00;100964.72;4867020;29;20774;-78
2022/05/11 04:42:52;;;;;;;25.77;18.00;;;;;;;11.26;100.00;100965.78;4871210;29;20052;-78
2022/05/11 04:45:18;;;;;;;24.15;17.27;;;;;;;11.26;100.00;100963.16;4871072;29;20037;-78
2022/05/11 04:47:44;;;;;;;25.80;18.45;;;;;;;11.35;100.00;100955.38;4872042;29;20040;-78
2022/05/11 04:50:12;;;;;;;22.48;17.40;;;;;;;11.29;100.00;100960.22;4873399;29;20056;-79
2022/05/11 04:52:38;;;;;;;26.52;18.48;;;;;;;11.29;100.00;100956.78;4838117;29;20044;-77
2022/05/11 04:55:06;;;;;;;27.10;17.63;;;;;;;11.28;100.00;100948.09;4858275;29;20034;-79
2022/05/11 04:57:32;;;;;;;24.23;16.67;;;;;;;11.32;100.00;100956.50;4859268;29;20238;-77
2022/05/11 04:59:58;;;;;;;22.88;17.50;;;;;;;11.32;100.00;100951.25;4864420;29;20123;-76
2022/05/11 05:02:25;;;;;;;23.48;17.67;;;;;;;11.53;100.00;100953.63;4865149;29;20132;-77
2022/05/11 05:04:51;;;;;;;26.35;17.73;;;;;;;11.52;100.00;100953.75;4848415;29;20052;-78
2022/05/11 05:07:18;;;;;;;27.02;17.15;;;;;;;11.55;100.00;100951.66;4861452;29;20075;-77
2022/05/11 05:09:44;;;;;;;25.65;18.10;;;;;;;11.58;100.00;100964.47;4860830;29;20102;-76
2022/05/11 05:12:12;;;;;;;26.50;18.35;;;;;;;11.59;100.00;100953.00;4871202;29;20029;-77
2022/05/11 05:14:38;;;;;;;25.77;18.40;;;;;;;11.63;100.00;100956.19;4864973;29;20045;-77
2022/05/11 05:17:07;;;;;;;26.17;18.20;;;;;;;11.64;100.00;100955.19;4856597;29;20037;-78
2022/05/11 05:19:33;;;;;;;28.15;17.70;;;;;;;11.56;100.00;100953.31;4867275;29;20037;-77
2022/05/11 05:22:02;;;;;;;23.15;17.48;;;;;;;11.56;100.00;100945.41;4858698;29;20033;-77
2022/05/11 05:24:28;;;;;;;24.30;18.65;;;;;;;11.63;100.00;100951.75;4855865;29;20097;-78
2022/05/11 05:26:53;;;;;;;26.92;18.67;;;;;;;11.64;100.00;100950.78;4871032;29;20148;-77
2022/05/11 05:32:05;;;;;;;23.67;17.15;;;;;;;11.72;100.00;100944.78;4863171;29;20040;-78
2022/05/11 05:34:30;;;;;;;25.20;17.88;;;;;;;11.69;100.00;100940.63;4869298;29;20048;-79
2022/05/11 05:36:55;;;;;;;23.95;17.17;;;;;;;11.78;100.00;100940.72;4853473;29;20044;-77
2022/05/11 05:39:22;;;;;;;26.55;18.30;;;;;;;11.77;100.00;100939.91;4866316;29;20380;-78
2022/05/11 05:41:48;;;;;;;21.67;17.00;;;;;;;11.84;100.00;100942.75;4886186;29;20035;-77
2022/05/11 05:44:14;;;;;;;22.90;17.67;;;;;;;11.81;100.00;100940.41;4869279;29;20042;-78
2022/05/11 05:46:39;;;;;;;24.13;17.58;;;;;;;11.83;100.00;100943.75;4876496;29;20043;-78
2022/05/11 05:49:05;;;;;;;23.63;18.33;;;;;;;11.84;100.00;100946.19;4859965;29;20631;-77
2022/05/11 05:51:32;;;;;;;26.90;17.55;;;;;;;11.90;100.00;100954.50;4872574;29;20120;-78
2022/05/11 05:53:57;;;;;;;24.33;17.10;;;;;;;11.85;100.00;100941.78;4845645;29;20123;-77
2022/05/11 05:56:23;;;;;;;23.02;17.33;;;;;;;11.91;100.00;100946.47;4855444;29;20041;-78
2022/05/11 05:58:49;;;;;;;23.33;17.08;;;;;;;11.88;100.00;100938.84;4856514;29;20033;-77
2022/05/11 06:01:18;;;;;;;22.85;16.65;;;;;;;11.95;100.00;100950.44;4864159;29;20033;-78
2022/05/11 06:03:44;;;;;;;24.75;17.83;;;;;;;11.91;100.00;100941.22;4848708;29;20064;-78
2022/05/11 06:06:11;;;;;;;25.65;16.70;;;;;;;12.07;100.00;100945.78;4861075;29;20108;-78
2022/05/11 06:08:37;;;;;;;21.90;16.95;;;;;;;12.06;100.00;100946.78;4842201;29;20037;-77
2022/05/11 06:11:04;;;;;;;24.45;17.70;;;;;;;12.15;100.00;100958.16;4872243;29;20056;-77
2022/05/11 06:13:30;;;;;;;23.58;17.15;;;;;;;12.18;100.00;100942.91;4868272;29;20540;-77
2022/05/11 06:15:56;;;;;;;22.77;18.13;;;;;;;12.22;100.00;100949.53;4869551;29;20048;-76
2022/05/11 06:18:24;;;;;;;26.58;18.95;;;;;;;12.29;100.00;100938.41;4834800;29;20050;-79
2022/05/11 06:20:51;;;;;;;26.27;18.83;;;;;;;12.21;100.00;100923.41;4892004;29;20257;-78
2022/05/11 06:23:21;;;;;;;24.15;18.52;;;;;;;12.23;100.00;100931.94;4880862;29;20021;-78
2022/05/11 06:25:49;;;;;;;25.98;19.65;;;;;;;12.29;100.00;100930.50;4866815;29;20025;-77
2022/05/11 06:28:15;;;;;;;28.17;20.00;;;;;;;12.24;100.00;100930.97;4882117;29;20026;-78
2022/05/11 06:30:40;;;;;;;29.60;19.88;;;;;;;12.26;100.00;100929.84;4895508;29;20056;-77
2022/05/11 06:33:06;;;;;;;27.05;20.02;;;;;;;12.23;100.00;100909.09;4891855;29;20026;-78
2022/05/11 06:35:32;;;;;;;26.17;19.48;;;;;;;12.26;100.00;100921.09;4879804;29;20044;-76
2022/05/11 06:38:06;;;;;;;26.83;19.17;;;;;;;12.31;100.00;100910.97;4859709;29;20033;-77
2022/05/11 06:40:32;;;;;;;26.58;19.75;;;;;;;12.40;100.00;100910.03;4882467;29;20062;-76
2022/05/11 06:42:57;;;;;;;24.60;19.08;;;;;;;12.63;100.00;100925.31;4861998;29;20046;-78
2022/05/11 06:45:23;;;;;;;24.00;19.48;;;;;;;12.69;100.00;100926.50;4869806;29;20038;-78
2022/05/11 06:47:49;;;;;;;25.42;18.17;;;;;;;12.59;100.00;100919.53;4853111;29;20601;-77
2022/05/11 06:50:16;;;;;;;28.73;19.05;;;;;;;12.61;100.00;100914.94;4873087;29;20092;-77
2022/05/11 06:52:42;;;;;;;25.38;18.52;;;;;;;12.59;100.00;100916.09;4860796;29;20041;-78
2022/05/11 07:00:39;;;;;;;24.30;18.15;;;;;;;12.74;100.00;100911.06;4870131;29;20033;-79
2022/05/11 07:03:05;;;;;;;24.58;18.05;;;;;;;12.78;100.00;100917.66;4862844;29;20041;-78
2022/05/11 07:05:32;;;;;;;27.70;17.77;;;;;;;12.78;100.00;100917.66;4869045;29;20120;-77
2022/05/11 07:07:59;;;;;;;25.08;16.58;;;;;;;12.81;100.00;100923.44;4861687;29;20089;-77
2022/05/11 07:10:25;;;;;;;22.85;16.65;;;;;;;12.83;100.00;100932.00;4848647;29;20066;-78
2022/05/11 07:12:50;;;;;;;20.25;16.17;;;;;;;12.83;100.00;100920.66;4872339;29;20082;-79
2022/05/11 07:15:19;;;;;;;25.42;17.38;;;;;;;12.90;100.00;100929.56;4870346;29;20048;-77
2022/05/11 07:17:50;;;;;;;23.48;17.27;;;;;;;12.83;100.00;100925.94;4867319;29;20032;-77
2022/05/11 07:20:33;;;;;;;24.23;16.80;;;;;;;12.84;100.00;100922.28;4850972;29;20507;-78
2022/05/11 07:23:01;;;;;;;20.75;15.90;;;;;;;12.93;100.00;100917.91;4843314;29;20033;-78
2022/05/11 07:25:27;;;;;;;21.52;16.45;;;;;;;13.02;100.00;100920.41;4846136;29;20198;-78
2022/05/11 07:27:54;;;;;;;18.92;15.18;;;;;;;13.01;100.00;100929.28;4861565;29;20034;-77
2022/05/11 07:30:27;;;;;;;18.52;15.15;;;;;;;13.03;100.00;100922.09;4863586;29;20057;-77
2022/05/11 07:32:52;;;;;;;22.48;15.15;;;;;;;12.88;100.00;100915.72;4877714;29;20090;-78
2022/05/11 07:35:18;;;;;;;20.73;15.23;;;;;;;12.88;100.00;100917.53;4866401;29;20064;-77
2022/05/11 07:37:47;;;;;;;23.92;15.95;;;;;;;12.87;100.00;100911.47;4847470;29;20042;-77
2022/05/11 07:40:15;;;;;;;21.70;15.80;;;;;;;12.90;100.00;100905.06;4871431;29;20037;-78
2022/05/11 07:42:43;;;;;;;25.67;15.85;;;;;;;13.01;100.00;100902.13;4869000;29;20525;-79
2022/05/11 07:45:10;;;;;;;19.48;14.98;;;;;;;13.01;100.00;100896.88;4870767;29;20067;-80
2022/05/11 07:47:36;;;;;;;18.70;14.48;;;;;;;12.98;100.00;100910.38;4873984;29;20043;-78
2022/05/11 07:50:02;;;;;;;21.90;14.82;;;;;;;12.97;100.00;100914.78;4875342;29;20073;-78
2022/05/11 07:52:28;;;;;;;19.10;15.07;;;;;;;12.87;100.00;100910.66;4871506;29;20084;-79
2022/05/11 07:54:53;;;;;;;19.08;13.75;;;;;;;12.84;100.00;100917.84;4862135;29;20745;-78
2022/05/11 08:00:06;;;;;;;20.75;15.30;;;;;;;12.84;100.00;100904.69;4868107;29;20032;-77
2022/05/11 08:02:34;;;;;;;24.90;15.48;;;;;;;12.88;100.00;100905.19;4861188;29;20065;-78
2022/05/11 08:05:03;;;;;;;22.40;15.25;;;;;;;12.96;100.00;100905.25;4862404;29;20235;-78
2022/05/11 08:07:40;;;;;;;17.70;14.23;;;;;;;13.04;100.00;100891.28;4874939;29;20049;-78
2022/05/11 08:10:08;;;;;;;19.38;15.57;;;;;;;13.12;100.00;100907.13;4876792;29;20048;-77
2022/05/11 08:12:33;;;;;;;21.15;14.88;;;;;;;13.13;100.00;100892.97;4859848;29;20026;-76
2022/05/11 08:14:59;;;;;;;19.58;15.02;;;;;;;13.24;100.00;100903.22;4871093;29;20280;-77
2022/05/11 08:17:28;;;;;;;19.00;14.20;;;;;;;13.30;100.00;100898.28;4858374;29;20036;-79
2022/05/11 08:19:54;;;;;;;18.55;13.20;;;;;;;13.38;100.00;100896.53;4868706;29;20029;-77
2022/05/11 08:22:20;;;;;;;18.25;13.13;;;;;;;13.50;100.00;100883.06;4858772;29;20049;-77
2022/05/11 08:24:46;;;;;;;17.30;12.75;;;;;;;13.57;100.00;100868.25;4870443;29;20115;-79
2022/05/11 08:27:16;;;;;;;16.90;13.10;;;;;;;13.75;100.00;100875.97;4859538;29;20059;-78
2022/05/11 08:35:10;;;;;;;16.23;11.75;;;;;;;14.63;100.00;100872.63;4865007;29;20045;-76
2022/05/11 08:37:35;;;;;;;17.20;11.32;;;;;;;14.91;100.00;100870.38;4865931;29;20066;-77
2022/05/11 08:40:01;;;;;;;17.52;11.25;;;;;;;15.16;100.00;100871.09;4864242;29;20037;-78
2022/05/11 08:42:31;;;;;;;14.10;10.00;;;;;;;15.22;100.00;100866.09;4877421;29;20045;-77
2022/05/11 08:45:02;;;;;;;13.48;10.38;;;;;;;15.40;100.00;100879.84;4865335;29;20041;-78
2022/05/11 08:47:44;;;;;;;13.80;10.18;;;;;;;15.40;100.00;100879.84;4875115;29;20116;-78
2022/05/11 08:50:20;;;;;;;17.73;9.88;;;;;;;15.29;100.00;100867.03;4870596;29;20132;-77
2022/05/11 08:53:05;;;;;;;11.93;9.50;;;;;;;15.12;100.00;100869.75;4864310;29;20038;-77
2022/05/11 08:55:49;;;;;;;14.63;10.07;;;;;;;15.03;100.00;100880.53;4855549;29;20108;-78
2022/05/11 08:58:23;;;;;;;14.43;9.27;;;;;;;15.00;100.00;100873.81;4861750;29;20073;-77
2022/05/11 09:00:51;;;;;;;14.27;9.68;;;;;;;14.98;100.00;100870.50;4866202;29;20053;-78
2022/05/11 09:03:41;;;;;;;12.05;9.27;;;;;;;14.88;100.00;100872.53;4849988;29;20396;-78
2022/05/11 09:06:16;;;;;;;13.63;9.35;;;;;;;14.81;100.00;100871.59;4857487;29;20140;-77
2022/05/11 09:08:42;;;;;;;12.52;8.63;;;;;;;14.75;100.00;100863.34;4833888;29;20042;-77
2022/05/11 09:11:13;;;;;;;13.00;8.82;;;;;;;14.90;100.00;100867.88;4872009;29;20566;-78
2022/05/11 09:13:42;;;;;;;11.00;7.97;;;;;;;15.07;100.00;100864.19;4868085;29;20033;-77
2022/05/11 09:16:39;;;;;;;10.82;7.82;;;;;;;15.19;100.00;100860.16;4856601;29;20085;-77
2022/05/11 09:19:27;;;;;;;12.88;8.10;;;;;;;15.42;100.00;100862.00;4852117;29;20075;-77
2022/05/11 09:22:17;;;;;;;15.55;8.93;;;;;;;16.08;100.00;100864.16;4856738;29;20038;-77
2022/05/11 09:25:15;;;;;;;12.63;7.72;;;;;;;16.44;100.00;100860.81;4857060;29;20508;-76
2022/05/11 09:27:40;;;;;;;9.73;7.10;;;;;;;16.45;100.00;100860.66;4840154;29;20046;-77
2022/05/11 09:30:19;;;;;;;12.93;6.60;;;;;;;16.59;100.00;100856.34;4856923;29;20041;-77
2022/05/11 09:32:44;;;;;;;11.25;6.97;;;;;;;16.73;100.00;100860.81;4862868;29;20104;-79
2022/05/11 09:35:24;;;;;;;10.50;6.68;;;;;;;16.87;100.00;100863.66;4874414;29;20221;-77
2022/05/11 09:37:59;;;;;;;9.52;6.80;;;;;;;16.91;100.00;100862.28;4852144;29;20059;-78
2022/05/11 09:40:25;;;;;;;9.25;6.18;;;;;;;17.08;100.00;100845.19;4859534;29;20056;-80
2022/05/11 09:42:55;;;;;;;12.07;6.70;;;;;;;17.15;98.56;100845.25;4856003;29;20172;-78
2022/05/11 09:45:38;;;;;;;9.98;5.97;;;;;;;17.20;99.58;100845.50;4839486;29;20128;-77
2022/05/11 09:48:27;;;;;;;8.75;5.25;;;;;;;17.47;95.15;100840.47;4854700;29;20362;-77
2022/05/11 09:51:14;;;;;;;10.15;5.00;;;;;;;17.57;91.62;100843.63;4864942;29;20491;-78
2022/05/11 09:53:49;;;;;;;9.90;5.15;;;;;;;17.60;95.95;100840.59;4852651;29;20033;-78
2022/05/11 09:56:31;;;;;;;8.00;4.88;;;;;;;17.71;94.19;100841.91;4847563;29;20029;-80
2022/05/11 09:59:15;;;;;;;7.53;5.00;;;;;;;17.68;100.00;100843.09;4865906;29;20138;-78
2022/05/11 10:01:41;;;;;;;9.93;5.18;;;;;;;17.73;100.00;100839.91;4861011;29;20388;-79
2022/05/11 10:04:09;;;;;;;8.18;5.60;;;;;;;17.61;100.00;100833.44;4861158;29;20045;-78
2022/05/11 10:06:50;;;;;;;5.78;4.50;;;;;;;17.61;99.99;100836.94;4853838;29;20033;-78
2022/05/11 10:09:25;;;;;;;8.50;4.07;;;;;;;17.72;98.98;100838.25;4857824;29;20033;-79
2022/05/11 10:11:51;;;;;;;6.85;4.30;;;;;;;18.03;93.21;100839.75;4871741;29;20029;-77
2022/05/11 10:22:51;;;;;;;7.63;3.88;;;;;;;19.35;85.26;100829.94;4861780;29;20042;-76
2022/05/11 10:25:24;;;;;;;5.13;3.90;;;;;;;19.11;79.16;100826.81;4856500;29;20045;-79
2022/05/11 10:28:08;;;;;;;7.57;3.92;;;;;;;19.06;81.41;100823.94;4870175;29;20108;-79
2022/05/11 10:30:52;;;;;;;9.43;4.50;;;;;;;19.08;83.06;100823.72;4870384;29;20037;-77
2022/05/11 10:33:29;;;;;;;6.45;3.88;;;;;;;19.08;81.75;100823.72;4857981;29;20052;-78
2022/05/11 10:35:59;;;;;;;7.40;4.63;;;;;;;19.18;79.59;100821.53;4860180;29;20041;-77
2022/05/11 10:38:44;;;;;;;7.72;4.50;;;;;;;19.34;85.51;100825.63;4858608;29;20053;-77
2022/05/11 10:41:23;;;;;;;9.88;3.72;;;;;;;19.37;82.54;100820.72;4873649;29;20047;-78
2022/05/11 10:44:24;;;;;;;7.57;4.18;;;;;;;19.50;81.24;100829.75;4857455;29;20040;-77
2022/05/11 10:47:01;;;;;;;6.82;4.40;;;;;;;19.69;78.76;100826.28;4857017;29;20753;-81
2022/05/11 10:49:42;;;;;;;5.95;4.07;;;;;;;20.02;78.75;100836.94;4855742;29;20042;-76
2022/05/11 10:52:34;;;;;;;9.77;4.10;;;;;;;20.08;79.91;100834.47;4853575;29;20124;-76
2022/05/11 10:55:16;;;;;;;11.63;4.10;;;;;;;20.18;79.39;100832.22;4870543;29;20409;-78
2022/05/11 10:58:05;;;;;;;10.02;3.95;;;;;;;20.39;81.05;100825.81;4853536;29;20541;-78
2022/05/11 11:00:36;;;;;;;6.57;3.83;;;;;;;20.21;79.36;100834.44;4851423;29;20042;-76
2022/05/11 11:03:27;;;;;;;12.45;4.13;;;;;;;20.51;79.03;100821.47;4852400;29;20033;-77
2022/05/11 11:09:02;;;;;;;;;;;;;;;20.58;83.07;100826.78;4859297;29;20052;-79
2022/05/11 11:11:36;;;;;;;8.23;3.88;;;;;;;20.48;79.63;100837.88;4857128;29;19974;-78
2022/05/11 11:14:04;;;;;;;5.82;3.67;;;;;;;20.77;85.75;100817.09;4855820;29;20060;-78
2022/05/11 11:16:36;;;;;;;5.07;3.83;;;;;;;21.03;79.23;100815.31;4858959;29;20032;-79
2022/05/11 11:19:04;;;;;;;7.22;4.38;;;;;;;20.73;75.59;100821.22;4854497;29;20112;-77
2022/05/11 11:21:30;;;;;;;9.35;4.38;;;;;;;21.08;74.10;100812.81;4855660;29;20052;-78
2022/05/11 11:24:10;;;;;;;5.13;3.80;;;;;;;21.47;74.03;100810.94;4861205;29;20574;-79
2022/05/11 11:26:53;;;;;;;8.68;3.95;;;;;;;21.59;76.82;100811.91;4859623;29;20060;-78
2022/05/11 11:29:50;;;;;;;;;;;;;;;21.57;74.41;100805.97;4861102;29;20531;-79
2022/05/11 11:32:20;;;;;;;7.63;4.30;;;;;;;21.46;73.74;100794.13;4833019;29;19927;-77
2022/05/11 11:35:00;;;;;;;7.95;4.03;;;;;;;21.24;75.09;100784.84;4865925;29;20037;-79
2022/05/11 11:37:35;;;;;;;9.05;4.15;;;;;;;21.60;72.25;100791.34;4853687;29;20045;-78
2022/05/11 11:40:13;;;;;;;7.43;4.28;;;;;;;21.47;72.21;100784.28;4858191;29;20564;-77
2022/05/11 11:42:42;;;;;;;8.38;4.30;;;;;;;21.63;70.79;100786.41;4852405;29;20037;-79
2022/05/11 11:45:28;;;;;;;6.43;3.88;;;;;;;21.44;71.13;100782.88;4867305;29;20093;-78
2022/05/11 11:48:03;;;;;;;6.10;4.20;;;;;;;21.23;75.10;100769.84;4857334;29;20072;-79
2022/05/11 11:51:00;;;;;;;8.00;4.30;;;;;;;21.38;72.99;100770.38;4873052;29;20038;-77
2022/05/11 11:53:41;;;;;;;5.93;4.00;;;;;;;21.43;81.13;100764.38;4855750;29;20065;-78